Aviation Digital Data Service (ADDS)

Output produced by METARs form (1557 UTC 23 August 2017)
found at http://aviationweather.gov/adds/metars/
 
KLBT 231228Z 2312/2412 20004KT P6SM SCT007 
     TEMPO 2312/2313 5SM BR BKN007 
     FM231400 21007KT P6SM SCT040 
     FM232100 20008KT P6SM VCTS BKN050CB 
     FM240200 21006KT 5SM -SHRA VCTS BKN040CB